Caldas1b

Aeroportos (Relatórios METAR)


LPPT - Lisboa
Distância da estação: SSE 78km
Actualizado: 02/03/2024 08:30
Pouco Nublado
Pouco Nublado
 Vento de WSW
Vento: WSW 20 km/h
Temperatura: 12°C
Pt. Orvalho: 8°C
Humidade: 77%
Barómetro: 1013 hPa
Nuvens: Pouco Nublado
Visibilidade: 10 km
Nebulosidade: Pouco Nublado 762 m
2024/03/02 08:30 LPPT 020830Z 25011KT 9999 FEW025 12/08 Q1013
LPPR - Porto
Distância da estação: NW 205km
Actualizado: 02/03/2024 08:30
Chuva fraca, Aguaceiros, Parc. nublado
Chuva fraca, Aguaceiros, Parc. nublado
 Vento de WSW
Vento: WSW 26 km/h
Temperatura: 13°C
Pt. Orvalho: 11°C
Humidade: 88%
Barómetro: 1005 hPa
Resumo: Chuva fraca, Aguaceiros
Nuvens: Parc. nublado
Visibilidade: 10 km
Nebulosidade: Pouco Nublado 274 m
Parc. nublado 366 m
2024/03/02 08:30 LPPR 020830Z 25014KT 220V290 9999 -SHRA FEW009 SCT012 13/11 Q1005
 
LPFR - Faro
Distância da estação: SE 286km
Actualizado: 02/03/2024 08:30
Pouco Nublado
Pouco Nublado
 Vento de NW
Vento: NW 7 km/h
Temperatura: 11°C
Pt. Orvalho: 10°C
Humidade: 94%
Barómetro: 1017 hPa
Nuvens: Pouco Nublado
Visibilidade: 10 km
Nebulosidade: Pouco Nublado 610 m
2024/03/02 08:30 LPFR 020830Z 31004KT 9999 FEW020 11/10 Q1017
LPBJ - Beja
Distância da estação: ESE 190km
Actualizado: 02/03/2024 08:39
Chuva fraca, Patches of, Nevoeiro, Parc. nublado
Chuva fraca, Patches of, Nevoeiro, Parc. nublado
 Vento de WSW
Vento: WSW 19 km/h
Temperatura: 11°C
Pt. Orvalho: 10°C
Humidade: 94%
Barómetro: 1015 hPa
Resumo: Chuva fraca, Patches of, Nevoeiro
Nuvens: Parc. nublado
Visibilidade: 5 km
Nebulosidade: Parc. nublado 1219 m
2024/03/02 08:39 LPBJ 020839Z 25010KT 5000 -RA BCFG SCT040 11/10 Q1015
 
LPMA - Funchal
Distância da estação: SSW 1025km
Actualizado: 02/03/2024 08:30
Parc. nublado
Parc. nublado
 Vento de N
Vento: N 22 km/h
Temperatura: 16°C
Pt. Orvalho: 10°C
Humidade: 68%
Barómetro: 1024 hPa
Nuvens: Parc. nublado
Visibilidade: 10 km
Nebulosidade: Parc. nublado 457 m
Parc. nublado 914 m
2024/03/02 08:30 LPMA 020830Z 36012KT 320V030 9999 SCT015 SCT030 16/10 Q1024
LPPD - Ponta Delgada
Distância da estação: W 1450km
Actualizado: 02/03/2024 08:30
Muito nublado
Muito nublado
 Vento de NW
Vento: NW 11 km/h
Temperatura: 12°C
Pt. Orvalho: 7°C
Humidade: 72%
Barómetro: 1032 hPa
Nuvens: Muito nublado
Visibilidade: 10 km
Nebulosidade: Pouco Nublado 610 m
Muito nublado 1067 m
2024/03/02 08:30 LPPD 020830Z 32006KT 9999 FEW020 BKN035 12/07 Q1032
 
LPCS - Cascais
Distância da estação: SSW 77km
Actualizado: 02/03/2024 08:30
Muito nublado
Muito nublado
 Vento de W
Vento: W 19 km/h
Temperatura: 13°C
Pt. Orvalho: 9°C
Humidade: 77%
Barómetro: 1014 hPa
Nuvens: Muito nublado
Visibilidade: 10 km
Nebulosidade: Pouco Nublado 762 m
Muito nublado 945 m
2024/03/02 08:30 LPCS 020830Z 26010KT 9999 FEW025 BKN031 13/09 Q1014
LPMR - Monte Real
Distância da estação: N 55km
Actualizado: 02/03/2024 08:00
Parc. nublado
Parc. nublado
 Vento de W
Vento: W 19 km/h
Temperatura: 13°C
Pt. Orvalho: 11°C
Humidade: 88%
Barómetro: 1011 hPa
Nuvens: Parc. nublado
Visibilidade: 10 km
Nebulosidade: Parc. nublado 914 m
2024/03/02 08:00 LPMR 020800Z 26010KT 220V290 9999 SCT030 13/11 Q1011

Phoenix Radar Flight Tracking

Map courtesy of flightradar24.com